Time;durP1;ratioP1;P1;durP2;ratioP2;P2;SDS_P1;SDS_P2;PMS_P1;PMS_P2;Temp;Humidity;BMP_temperature;BMP_pressure;BME280_temperature;BME280_humidity;BME280_pressure;Samples;Min_cycle;Max_cycle;Signal;HPM_P1;HPM_P2
2022/11/08 00:02:25;;;;;;;9.27;4.55;;;;;;;8.02;100.00;99012.47;5100141;28;20408;-60
2022/11/08 00:04:50;;;;;;;7.50;4.57;;;;;;;8.24;100.00;99003.84;5099695;28;20020;-60
2022/11/08 00:15:28;;;;;;;7.30;3.78;;;;;;;8.45;100.00;98997.00;5099363;28;20042;-60
2022/11/08 00:17:55;;;;;;;6.45;3.90;;;;;;;8.51;100.00;99006.06;5099768;28;20035;-60
2022/11/08 00:20:20;;;;;;;9.52;4.60;;;;;;;8.56;100.00;98996.16;5097613;28;20023;-60
2022/11/08 00:22:46;;;;;;;8.93;4.35;;;;;;;8.56;100.00;98997.91;5080154;28;20035;-60
2022/11/08 00:25:11;;;;;;;8.40;4.25;;;;;;;8.52;100.00;98999.09;5098971;28;20032;-60
2022/11/08 00:27:37;;;;;;;7.07;3.85;;;;;;;8.51;100.00;98993.09;5115690;27;20043;-60
2022/11/08 00:30:03;;;;;;;6.93;4.05;;;;;;;8.47;100.00;98986.53;5082650;28;20105;-60
2022/11/08 00:32:28;;;;;;;6.53;3.42;;;;;;;8.34;100.00;98965.91;5097776;28;20487;-61
2022/11/08 00:34:54;;;;;;;6.68;3.65;;;;;;;8.59;100.00;98995.06;5094063;28;20070;-60
2022/11/08 00:37:20;;;;;;;7.53;3.60;;;;;;;8.54;100.00;98995.47;5100141;28;20032;-60
2022/11/08 00:39:45;;;;;;;7.68;3.75;;;;;;;8.48;99.95;98987.34;5082260;28;20470;-60
2022/11/08 00:42:11;;;;;;;6.72;3.30;;;;;;;8.45;99.52;99006.53;5093428;28;20039;-60
2022/11/08 00:44:37;;;;;;;6.78;3.42;;;;;;;8.59;97.21;99019.22;5100793;28;20869;-60
2022/11/08 00:47:02;;;;;;;7.32;3.60;;;;;;;8.38;96.71;98984.63;5094136;28;20459;-60
2022/11/08 00:49:28;;;;;;;7.15;3.47;;;;;;;8.65;95.11;99015.31;5099913;28;20613;-60
2022/11/08 00:51:54;;;;;;;7.88;3.40;;;;;;;8.68;94.22;99017.66;5097405;28;20034;-60
2022/11/08 00:54:20;;;;;;;7.88;3.78;;;;;;;8.64;93.79;99021.47;5075399;28;20062;-60
2022/11/08 00:56:46;;;;;;;6.45;3.50;;;;;;;8.68;93.76;99016.84;5098334;28;20032;-60
2022/11/08 00:59:13;;;;;;;7.70;3.45;;;;;;;8.66;92.97;99007.41;5098203;28;20808;-60
2022/11/08 01:01:39;;;;;;;7.68;3.17;;;;;;;8.56;92.92;99006.53;5096402;28;20028;-61
2022/11/08 01:04:06;;;;;;;5.50;2.90;;;;;;;8.35;92.63;98985.69;5106769;27;20084;-60
2022/11/08 01:06:31;;;;;;;6.38;3.05;;;;;;;8.65;92.60;99005.78;5079825;28;20054;-60
2022/11/08 01:08:57;;;;;;;5.88;2.97;;;;;;;8.61;92.49;99006.13;5100591;28;20055;-61
2022/11/08 01:11:24;;;;;;;6.20;2.85;;;;;;;8.61;92.59;99013.91;5092016;28;20699;-60
2022/11/08 01:13:50;;;;;;;7.13;3.20;;;;;;;8.51;93.49;99007.84;5093379;28;20024;-60
2022/11/08 01:16:21;;;;;;;6.05;3.05;;;;;;;8.54;94.14;99012.75;5114427;27;20031;-60
2022/11/08 01:18:48;;;;;;;7.78;3.03;;;;;;;8.58;94.14;99014.16;5097743;28;20059;-61
2022/11/08 01:21:14;;;;;;;6.57;3.10;;;;;;;8.67;93.57;99018.63;5111661;27;20032;-60
2022/11/08 01:23:40;;;;;;;5.50;2.90;;;;;;;8.67;93.77;99021.22;5093910;28;20112;-60
2022/11/08 01:26:08;;;;;;;6.30;3.22;;;;;;;8.70;92.85;99009.78;5097168;28;20027;-60
2022/11/08 01:28:34;;;;;;;6.63;2.90;;;;;;;8.72;93.04;99013.06;5097927;28;20035;-59
2022/11/08 01:31:27;;;;;;;5.10;2.60;;;;;;;8.82;92.67;99012.19;5098316;28;20693;-60
2022/11/08 01:33:53;;;;;;;5.80;2.78;;;;;;;8.88;92.78;99016.06;5088707;28;20071;-59
2022/11/08 01:36:21;;;;;;;6.15;2.75;;;;;;;8.85;93.12;99003.34;5115978;27;20158;-60
2022/11/08 01:38:46;;;;;;;5.68;2.85;;;;;;;8.81;93.99;99004.53;5096008;28;20031;-60
2022/11/08 01:41:13;;;;;;;6.30;2.80;;;;;;;8.79;94.41;98999.47;5096404;28;20040;-59
2022/11/08 01:43:40;;;;;;;6.07;2.90;;;;;;;8.46;95.48;98970.13;5112740;28;20425;-60
2022/11/08 01:46:22;;;;;;;7.10;3.10;;;;;;;8.61;96.03;98998.34;5092192;28;20751;-59
2022/11/08 01:48:58;;;;;;;7.70;2.97;;;;;;;8.37;95.58;98959.66;5110786;28;20047;-61
2022/11/08 01:51:31;;;;;;;6.00;2.63;;;;;;;8.62;95.47;98994.84;5095890;28;20488;-60
2022/11/08 01:53:57;;;;;;;5.68;2.70;;;;;;;8.56;96.06;98993.56;5097215;28;20031;-60
2022/11/08 01:56:23;;;;;;;5.57;3.08;;;;;;;8.30;96.30;98950.72;5099034;28;20522;-60
2022/11/08 01:58:50;;;;;;;5.43;2.72;;;;;;;8.45;97.05;98989.22;5075239;28;20028;-60
2022/11/08 02:01:15;;;;;;;6.15;2.67;;;;;;;8.34;96.68;98949.53;5097115;28;20176;-60
2022/11/08 02:03:41;;;;;;;5.70;2.67;;;;;;;8.46;97.24;98969.31;5096957;28;20043;-60
2022/11/08 02:06:07;;;;;;;6.78;3.42;;;;;;;8.52;97.01;98976.59;5078143;28;20032;-60
2022/11/08 02:08:40;;;;;;;6.20;2.92;;;;;;;8.51;96.99;98976.72;5093456;28;20118;-60
2022/11/08 02:11:07;;;;;;;6.90;3.20;;;;;;;8.54;97.66;98979.91;5105734;28;20027;-60
2022/11/08 02:13:33;;;;;;;6.95;2.92;;;;;;;8.59;97.92;98971.75;5099623;28;20024;-60
2022/11/08 02:15:59;;;;;;;6.93;3.10;;;;;;;8.44;97.77;98960.84;5094585;28;20553;-60
2022/11/08 02:18:28;;;;;;;6.38;2.78;;;;;;;8.55;97.95;98978.94;5098045;28;20117;-60
2022/11/08 02:21:41;;;;;;;5.93;2.97;;;;;;;8.49;97.68;98966.50;5094948;28;20043;-60
2022/11/08 02:24:08;;;;;;;6.10;2.60;;;;;;;8.43;97.03;98960.03;5068010;28;20028;-61
2022/11/08 02:26:35;;;;;;;6.20;2.90;;;;;;;8.44;95.40;98950.47;5090552;28;20110;-61
2022/11/08 02:29:25;;;;;;;5.80;2.58;;;;;;;8.47;94.71;98960.59;5101292;28;20099;-61
2022/11/08 02:31:51;;;;;;;6.43;2.78;;;;;;;8.44;93.21;98950.47;5099865;28;20031;-61
2022/11/08 02:34:17;;;;;;;7.13;2.58;;;;;;;8.46;93.09;98951.16;5084550;28;20034;-61
2022/11/08 02:36:45;;;;;;;6.20;2.35;;;;;;;8.55;92.00;98945.25;5119753;27;20122;-61
2022/11/08 02:39:10;;;;;;;7.75;2.03;;;;;;;8.55;91.93;98947.84;5097198;28;20020;-61
2022/11/08 02:41:35;;;;;;;5.95;2.40;;;;;;;8.56;91.88;98941.72;5101832;28;20026;-62
2022/11/08 02:44:01;;;;;;;5.03;2.00;;;;;;;8.49;92.58;98934.53;5101537;28;20122;-61
2022/11/08 02:46:26;;;;;;;5.97;1.98;;;;;;;8.25;91.62;98907.88;5100225;28;20607;-61
2022/11/08 02:48:51;;;;;;;5.38;2.20;;;;;;;8.49;91.31;98934.53;5102721;28;20032;-61
2022/11/08 02:51:17;;;;;;;5.20;2.30;;;;;;;8.48;91.46;98943.28;5112261;27;20038;-61
2022/11/08 02:53:42;;;;;;;4.43;1.98;;;;;;;8.43;92.33;98938.44;5095452;28;20061;-61
2022/11/08 02:56:07;;;;;;;6.93;2.45;;;;;;;8.45;91.31;98945.19;5082166;28;20094;-61
2022/11/08 02:58:33;;;;;;;4.72;1.92;;;;;;;8.54;91.91;98946.22;5099223;28;20046;-61
2022/11/08 03:00:58;;;;;;;5.55;2.30;;;;;;;8.54;92.43;98945.38;5097630;28;20484;-61
2022/11/08 03:03:24;;;;;;;5.40;2.30;;;;;;;8.45;92.04;98945.19;5101637;28;20512;-61
2022/11/08 03:05:49;;;;;;;4.78;1.85;;;;;;;8.48;92.39;98931.13;5098419;28;20042;-61
2022/11/08 03:08:14;;;;;;;4.22;1.80;;;;;;;8.53;92.07;98930.78;5097008;28;20055;-61
2022/11/08 03:10:40;;;;;;;4.32;1.90;;;;;;;8.46;92.36;98928.66;5084772;28;20036;-61
2022/11/08 03:13:06;;;;;;;4.80;2.10;;;;;;;8.52;91.78;98924.75;5081499;28;20143;-61
2022/11/08 03:15:31;;;;;;;5.22;2.10;;;;;;;8.28;92.03;98888.66;5100754;28;20497;-63
2022/11/08 03:17:58;;;;;;;5.25;2.00;;;;;;;8.25;91.40;98876.78;5101331;28;20024;-61
2022/11/08 03:20:24;;;;;;;5.10;1.80;;;;;;;8.42;91.42;98913.50;5101865;28;20031;-61
2022/11/08 03:22:59;;;;;;;4.45;1.85;;;;;;;8.49;92.51;98922.44;5099498;28;20027;-61
2022/11/08 03:25:25;;;;;;;5.70;2.03;;;;;;;8.43;92.28;98908.19;5096164;28;20027;-61
2022/11/08 03:27:51;;;;;;;5.13;1.65;;;;;;;8.53;91.91;98933.38;5101406;28;20872;-61
2022/11/08 03:30:16;;;;;;;5.25;2.10;;;;;;;8.53;91.55;98921.22;5099965;28;20023;-62
2022/11/08 03:32:45;;;;;;;4.60;1.90;;;;;;;8.39;90.07;98882.63;5099889;27;20130;-61
2022/11/08 03:35:12;;;;;;;5.75;2.13;;;;;;;8.55;91.06;98911.56;5101728;28;20064;-61
2022/11/08 03:37:37;;;;;;;4.63;1.80;;;;;;;8.54;91.05;98920.28;5081187;28;20031;-62
2022/11/08 03:40:03;;;;;;;4.82;1.95;;;;;;;8.48;91.36;98901.81;5100152;28;20071;-61
2022/11/08 03:42:29;;;;;;;4.63;2.08;;;;;;;8.22;91.79;98858.06;5097349;28;20043;-61
2022/11/08 03:44:54;;;;;;;6.28;1.92;;;;;;;8.46;91.46;98899.34;5083476;28;20039;-61
2022/11/08 03:47:19;;;;;;;5.55;2.05;;;;;;;8.44;90.71;98907.22;5099631;28;20028;-61
2022/11/08 03:49:45;;;;;;;4.45;2.05;;;;;;;8.46;91.14;98907.13;5098403;28;20028;-61
2022/11/08 03:52:11;;;;;;;4.65;1.88;;;;;;;8.46;90.79;98897.56;5100226;28;20108;-61
2022/11/08 03:54:36;;;;;;;4.40;2.00;;;;;;;8.51;90.57;98904.16;5095683;28;20034;-61
2022/11/08 03:57:02;;;;;;;4.63;2.05;;;;;;;8.24;90.83;98863.94;5096151;28;20028;-61
2022/11/08 03:59:27;;;;;;;4.47;1.63;;;;;;;8.52;91.32;98905.78;5100681;28;20035;-61
2022/11/08 04:01:52;;;;;;;4.63;1.88;;;;;;;8.23;90.59;98844.16;5098721;28;20022;-61
2022/11/08 04:04:18;;;;;;;4.72;1.70;;;;;;;8.51;90.96;98902.38;5101008;28;20031;-61
2022/11/08 04:06:43;;;;;;;4.30;1.80;;;;;;;8.55;90.41;98903.78;5098424;28;20070;-61
2022/11/08 04:09:09;;;;;;;4.93;1.60;;;;;;;8.60;89.26;98901.63;5101066;28;20035;-62
2022/11/08 04:17:02;;;;;;;5.38;1.98;;;;;;;8.66;87.80;98900.31;5112024;27;20140;-61
2022/11/08 04:22:11;;;;;;;4.65;1.77;;;;;;;8.62;87.10;98876.41;5113911;27;20080;-63
2022/11/08 04:24:37;;;;;;;3.75;1.50;;;;;;;8.74;86.39;98894.50;5101842;28;20048;-62
2022/11/08 04:27:02;;;;;;;4.57;1.60;;;;;;;8.72;86.43;98901.59;5099656;28;20130;-60
2022/11/08 04:29:28;;;;;;;4.13;1.50;;;;;;;8.59;87.56;98878.44;5102307;28;20038;-61
2022/11/08 04:31:53;;;;;;;3.63;1.27;;;;;;;8.78;87.51;98895.88;5099992;28;20107;-60
2022/11/08 04:34:19;;;;;;;4.45;1.80;;;;;;;8.73;87.73;98883.31;5097519;28;20398;-62
2022/11/08 04:36:44;;;;;;;4.72;1.58;;;;;;;8.72;87.85;98893.81;5113752;27;20024;-61
2022/11/08 04:39:10;;;;;;;4.40;1.52;;;;;;;8.73;87.98;98890.28;5102061;27;20397;-61
2022/11/08 04:41:35;;;;;;;4.45;1.65;;;;;;;8.81;87.96;98891.25;5100607;28;20103;-61
2022/11/08 04:44:00;;;;;;;6.00;1.52;;;;;;;8.80;88.33;98887.03;5080536;28;20147;-62
2022/11/08 04:46:28;;;;;;;4.47;1.65;;;;;;;8.59;88.20;98868.06;5116998;27;20067;-60
2022/11/08 04:48:58;;;;;;;3.75;1.45;;;;;;;8.60;87.84;98852.38;5096447;27;20032;-61
2022/11/08 04:51:28;;;;;;;4.82;1.50;;;;;;;8.76;88.13;98884.81;5077050;28;20027;-62
2022/11/08 04:53:59;;;;;;;6.43;1.50;;;;;;;8.81;87.49;98893.03;5096044;28;20047;-61
2022/11/08 04:56:26;;;;;;;4.43;1.50;;;;;;;8.73;87.60;98885.09;5099121;28;20023;-61
2022/11/08 04:58:54;;;;;;;4.15;1.60;;;;;;;8.81;85.85;98887.84;5097729;28;20526;-61
2022/11/08 05:05:20;;;;;;;3.78;1.48;;;;;;;8.84;85.91;98892.81;5083585;28;20919;-61
2022/11/08 05:07:46;;;;;;;4.20;1.60;;;;;;;8.84;84.86;98893.63;5099449;27;20043;-61
2022/11/08 05:10:11;;;;;;;4.38;1.60;;;;;;;8.81;84.60;98887.84;5095753;28;20035;-61
2022/11/08 05:12:37;;;;;;;4.38;1.65;;;;;;;8.80;82.87;98870.69;5086195;28;20042;-61
2022/11/08 05:15:02;;;;;;;4.18;1.60;;;;;;;9.00;81.96;98888.00;5095671;28;20546;-61
2022/11/08 05:17:27;;;;;;;3.97;1.40;;;;;;;8.99;80.82;98888.91;5100478;28;20039;-61
2022/11/08 05:25:21;;;;;;;3.67;1.35;;;;;;;8.71;83.57;98846.31;5094931;28;20038;-61
2022/11/08 05:27:46;;;;;;;3.75;1.42;;;;;;;8.96;85.51;98889.19;5096129;28;20032;-61
2022/11/08 05:30:12;;;;;;;4.32;1.67;;;;;;;8.96;87.79;98890.94;5095187;28;20039;-61
2022/11/08 05:32:37;;;;;;;4.68;2.00;;;;;;;8.70;89.17;98843.84;5096746;28;20024;-61
2022/11/08 05:35:03;;;;;;;5.72;2.08;;;;;;;8.98;90.50;98892.47;5098506;28;20035;-62
2022/11/08 05:37:28;;;;;;;4.18;1.60;;;;;;;8.96;90.73;98877.97;5096592;28;20027;-61
2022/11/08 05:39:54;;;;;;;4.97;1.80;;;;;;;8.70;90.52;98844.66;5096625;28;20114;-60
2022/11/08 05:42:19;;;;;;;4.30;1.80;;;;;;;8.92;91.67;98877.41;5093843;28;20032;-61
2022/11/08 05:44:44;;;;;;;4.45;1.70;;;;;;;8.85;91.74;98889.25;5074760;28;20119;-61
2022/11/08 05:47:10;;;;;;;4.45;1.95;;;;;;;8.64;91.97;98861.56;5089550;28;20015;-61
2022/11/08 05:49:35;;;;;;;3.65;1.48;;;;;;;8.81;92.52;98893.84;5088210;28;20200;-61
2022/11/08 05:52:01;;;;;;;5.03;1.80;;;;;;;8.80;93.32;98891.41;5091395;28;20039;-61
2022/11/08 05:54:26;;;;;;;7.80;2.05;;;;;;;8.71;94.35;98890.41;5111190;28;20035;-60
2022/11/08 05:56:52;;;;;;;4.22;1.73;;;;;;;8.73;94.68;98895.47;5092839;28;20032;-61
2022/11/08 05:59:17;;;;;;;4.45;1.80;;;;;;;8.42;94.87;98859.91;5078001;28;20028;-61
2022/11/08 06:01:42;;;;;;;4.45;1.90;;;;;;;8.60;95.41;98895.66;5089506;28;20031;-60
2022/11/08 06:04:08;;;;;;;4.13;1.67;;;;;;;8.65;95.39;98903.84;5093575;28;20024;-60
2022/11/08 06:06:33;;;;;;;5.05;1.90;;;;;;;8.73;96.12;98898.06;5101238;28;20031;-60
2022/11/08 06:08:59;;;;;;;5.35;1.80;;;;;;;8.61;95.73;98911.03;5079421;28;20035;-60
2022/11/08 06:11:25;;;;;;;4.97;1.90;;;;;;;8.66;96.25;98897.72;5098193;28;20470;-60
2022/11/08 06:13:52;;;;;;;4.78;1.83;;;;;;;8.71;96.68;98905.13;5101940;28;20039;-60
2022/11/08 06:16:19;;;;;;;4.90;1.95;;;;;;;8.68;97.26;98905.38;5102789;28;20027;-60
2022/11/08 06:18:45;;;;;;;4.10;1.80;;;;;;;8.75;96.54;98909.94;5082763;28;20032;-60
2022/11/08 06:21:13;;;;;;;5.00;1.90;;;;;;;8.79;96.36;98906.13;5104533;27;20111;-60
2022/11/08 06:23:39;;;;;;;5.75;1.67;;;;;;;8.78;96.18;98909.69;5096813;28;20028;-60
2022/11/08 06:26:04;;;;;;;4.35;1.80;;;;;;;8.59;96.02;98871.47;5095498;28;20076;-61
2022/11/08 06:28:30;;;;;;;4.97;2.25;;;;;;;8.80;96.66;98901.78;5099023;28;20031;-60
2022/11/08 06:30:59;;;;;;;4.78;1.80;;;;;;;8.84;96.21;98909.16;5078398;28;20031;-60
2022/11/08 06:33:25;;;;;;;4.03;1.75;;;;;;;8.91;96.18;98913.84;5098134;28;20027;-60
2022/11/08 06:35:50;;;;;;;4.45;1.98;;;;;;;8.93;97.36;98909.38;5077051;28;20039;-60
2022/11/08 06:38:16;;;;;;;4.20;1.63;;;;;;;8.91;95.78;98908.66;5087852;28;20474;-60
2022/11/08 06:40:42;;;;;;;4.53;1.80;;;;;;;8.98;95.80;98918.41;5095817;27;20111;-60
2022/11/08 06:43:10;;;;;;;5.00;2.30;;;;;;;8.96;94.98;98909.94;5094314;28;20564;-61
2022/11/08 06:45:36;;;;;;;4.20;1.60;;;;;;;9.07;94.66;98914.22;5101271;28;20045;-61
2022/11/08 06:48:03;;;;;;;4.63;1.67;;;;;;;9.07;95.35;98916.00;5081813;28;20069;-61
2022/11/08 06:50:30;;;;;;;5.15;1.77;;;;;;;9.06;94.76;98902.22;5102680;28;20020;-62
2022/11/08 06:53:01;;;;;;;4.90;1.55;;;;;;;9.14;95.75;98914.53;5076032;28;20421;-63
2022/11/08 06:55:27;;;;;;;4.28;1.80;;;;;;;9.18;96.86;98918.50;5097026;28;20080;-62
2022/11/08 06:57:52;;;;;;;4.07;1.48;;;;;;;9.18;94.31;98924.53;5096105;28;20039;-60
2022/11/08 07:00:18;;;;;;;4.25;1.55;;;;;;;9.06;95.43;98932.53;5083556;28;20382;-60
2022/11/08 07:02:44;;;;;;;4.22;1.45;;;;;;;9.14;94.43;98930.09;5084775;28;20502;-61
2022/11/08 07:05:10;;;;;;;3.65;1.15;;;;;;;9.14;92.98;98923.13;5080596;28;20039;-61
2022/11/08 07:07:36;;;;;;;4.10;1.50;;;;;;;9.07;90.83;98910.81;5107648;27;20054;-64
2022/11/08 07:10:03;;;;;;;4.03;1.52;;;;;;;9.27;91.71;98933.31;5076511;28;20131;-62
2022/11/08 07:12:28;;;;;;;3.97;1.50;;;;;;;9.26;91.75;98942.06;5095686;28;20115;-61
2022/11/08 07:14:53;;;;;;;4.65;1.70;;;;;;;9.41;89.16;98945.94;5095547;28;20111;-61
2022/11/08 07:17:19;;;;;;;3.85;1.40;;;;;;;9.31;88.49;98947.69;5099864;28;20084;-61
2022/11/08 07:19:44;;;;;;;4.00;1.30;;;;;;;9.28;88.84;98949.72;5102037;28;20505;-61
2022/11/08 07:22:09;;;;;;;3.95;1.30;;;;;;;9.27;88.89;98929.91;5079117;28;20027;-61
2022/11/08 07:24:35;;;;;;;7.22;1.70;;;;;;;9.41;87.89;98955.53;5103391;28;20019;-61
2022/11/08 07:27:00;;;;;;;3.90;1.40;;;;;;;9.35;88.23;98958.63;5095351;28;20036;-61
2022/11/08 07:29:26;;;;;;;3.90;1.40;;;;;;;9.34;88.40;98956.97;5100347;28;21196;-61
2022/11/08 07:31:51;;;;;;;4.10;1.52;;;;;;;9.29;88.11;98957.38;5101718;28;20035;-61
2022/11/08 07:34:16;;;;;;;4.05;1.42;;;;;;;9.37;88.11;98954.97;5092829;28;20023;-61
2022/11/08 07:36:42;;;;;;;3.72;1.40;;;;;;;9.38;89.37;98948.81;5084448;28;20039;-61
2022/11/08 07:39:08;;;;;;;5.32;1.40;;;;;;;9.18;88.49;98913.31;5099202;28;20095;-61
2022/11/08 07:41:33;;;;;;;4.50;1.30;;;;;;;9.45;87.89;98953.50;5096168;28;20165;-61
2022/11/08 07:43:59;;;;;;;3.70;1.30;;;;;;;9.49;88.24;98950.53;5096025;28;20028;-62
2022/11/08 07:46:24;;;;;;;4.20;1.40;;;;;;;9.49;88.05;98944.50;5098708;28;20042;-61
2022/11/08 07:48:49;;;;;;;3.60;1.50;;;;;;;9.51;86.90;98945.19;5099943;28;20027;-61
2022/11/08 07:51:15;;;;;;;4.85;1.70;;;;;;;9.28;87.12;98913.41;5070609;28;20058;-61
2022/11/08 07:53:44;;;;;;;5.18;1.50;;;;;;;9.53;87.57;98961.47;5111075;27;20051;-61
2022/11/08 07:56:10;;;;;;;3.58;1.27;;;;;;;9.56;87.40;98956.00;5094926;28;20067;-60
2022/11/08 07:58:35;;;;;;;4.70;1.50;;;;;;;9.54;86.58;98950.94;5097322;28;20055;-61
2022/11/08 08:01:02;;;;;;;5.22;1.60;;;;;;;9.60;86.07;98954.78;5091616;28;20032;-61
2022/11/08 08:03:28;;;;;;;4.20;1.30;;;;;;;9.61;85.95;98959.84;5097557;28;20048;-61
2022/11/08 08:05:53;;;;;;;4.03;1.35;;;;;;;9.59;87.49;98956.56;5111633;27;20159;-61
2022/11/08 08:08:19;;;;;;;3.75;1.40;;;;;;;9.60;86.39;98958.22;5097887;28;20035;-61
2022/11/08 08:10:44;;;;;;;4.53;1.50;;;;;;;9.58;86.85;98961.88;5099765;28;20030;-61
2022/11/08 08:13:10;;;;;;;4.93;1.58;;;;;;;9.39;86.68;98923.69;5099476;28;20042;-61
2022/11/08 08:15:35;;;;;;;3.85;1.40;;;;;;;9.65;86.27;98959.59;5098659;28;20027;-61
2022/11/08 08:18:02;;;;;;;4.80;1.75;;;;;;;9.72;85.29;98960.72;5081344;28;20055;-61
2022/11/08 08:20:29;;;;;;;4.70;1.50;;;;;;;9.69;85.40;98954.03;5082375;28;20573;-61
2022/11/08 08:22:54;;;;;;;4.25;1.60;;;;;;;9.67;84.83;98955.09;5098379;28;20097;-61
2022/11/08 08:25:19;;;;;;;5.03;1.38;;;;;;;9.54;83.83;98924.97;5077956;28;20136;-61
2022/11/08 08:27:49;;;;;;;4.53;1.48;;;;;;;9.71;83.55;98961.66;5100994;28;20031;-61
2022/11/08 08:30:16;;;;;;;4.28;1.23;;;;;;;9.77;81.81;98966.34;5097394;28;20016;-61
2022/11/08 08:32:41;;;;;;;3.80;1.30;;;;;;;9.77;82.63;98961.16;5097163;28;20659;-61
2022/11/08 08:35:07;;;;;;;3.50;1.30;;;;;;;9.66;81.77;98950.88;5101446;28;20118;-61
2022/11/08 08:37:32;;;;;;;5.82;1.33;;;;;;;9.85;82.81;98976.88;5096823;28;20109;-61
2022/11/08 08:39:58;;;;;;;3.75;1.40;;;;;;;9.87;81.72;98968.97;5076642;28;20322;-61
2022/11/08 08:42:23;;;;;;;4.85;1.33;;;;;;;9.92;81.92;98972.81;5076727;28;20054;-61
2022/11/08 08:44:48;;;;;;;3.83;1.30;;;;;;;9.94;81.32;98976.09;5101259;28;20103;-62
2022/11/08 08:47:14;;;;;;;4.00;1.35;;;;;;;9.92;80.93;98966.81;5098788;28;20504;-62
2022/11/08 08:49:39;;;;;;;4.18;1.33;;;;;;;9.99;80.71;98984.34;5078963;28;20769;-61
2022/11/08 08:52:04;;;;;;;5.28;1.48;;;;;;;9.90;81.79;98969.53;5095530;28;20107;-64
2022/11/08 08:54:30;;;;;;;5.15;1.52;;;;;;;9.99;81.13;98979.13;5098218;28;20063;-61
2022/11/08 08:56:55;;;;;;;4.85;1.40;;;;;;;9.97;80.62;98970.66;5117201;27;20548;-61
2022/11/08 08:59:21;;;;;;;4.47;1.70;;;;;;;10.07;80.17;98981.06;5101227;28;20033;-61
2022/11/08 09:01:46;;;;;;;4.32;1.40;;;;;;;10.08;80.38;98979.31;5090030;28;20111;-61
2022/11/08 09:04:11;;;;;;;6.18;1.92;;;;;;;10.07;80.67;98967.25;5099818;28;20023;-62
2022/11/08 09:06:37;;;;;;;5.60;1.50;;;;;;;10.08;80.24;98974.94;5091299;28;20071;-61
2022/11/08 09:09:02;;;;;;;5.05;1.70;;;;;;;10.11;81.11;98982.47;5098479;28;20076;-60
2022/11/08 09:11:28;;;;;;;4.32;1.50;;;;;;;10.12;81.51;98965.09;5098487;28;20469;-61
2022/11/08 09:13:53;;;;;;;4.32;1.60;;;;;;;10.11;81.48;98979.88;5094315;28;20028;-61
2022/11/08 09:16:18;;;;;;;5.45;1.60;;;;;;;10.13;82.06;98980.56;5110121;27;20024;-62
2022/11/08 09:18:44;;;;;;;3.65;1.50;;;;;;;10.12;81.56;98973.69;5114974;27;20039;-61
2022/11/08 09:21:09;;;;;;;4.93;1.60;;;;;;;10.04;81.01;98962.31;5098683;28;20015;-61
2022/11/08 09:23:35;;;;;;;4.32;1.73;;;;;;;10.16;81.22;98976.84;5102706;28;20027;-61
2022/11/08 09:26:02;;;;;;;4.75;1.75;;;;;;;10.11;81.71;98966.03;5103862;28;20803;-61
2022/11/08 09:28:32;;;;;;;4.65;2.10;;;;;;;10.25;81.33;98978.66;5099809;28;20059;-61
2022/11/08 09:31:07;;;;;;;4.70;1.70;;;;;;;10.18;79.96;98982.75;5095282;28;20032;-61
2022/11/08 09:33:32;;;;;;;4.72;1.80;;;;;;;10.20;81.36;98983.41;5099670;28;20028;-61
2022/11/08 09:36:00;;;;;;;6.18;2.35;;;;;;;10.25;79.06;98980.44;5106873;28;20032;-61
2022/11/08 09:38:25;;;;;;;4.28;1.70;;;;;;;10.23;79.37;98977.97;5094639;28;20086;-63
2022/11/08 09:41:17;;;;;;;4.47;1.70;;;;;;;10.04;79.52;98951.94;5128986;27;20486;-61
2022/11/08 09:43:51;;;;;;;4.20;1.55;;;;;;;10.31;79.22;98982.53;5098022;28;20554;-63
2022/11/08 09:46:49;;;;;;;4.40;1.70;;;;;;;10.35;80.50;98983.91;5090095;28;20221;-64
2022/11/08 09:49:25;;;;;;;4.75;1.80;;;;;;;10.37;81.82;98984.59;5066002;28;20044;-63
2022/11/08 09:51:51;;;;;;;6.97;2.05;;;;;;;10.36;82.20;98973.38;5080303;28;20048;-64
2022/11/08 09:54:23;;;;;;;5.22;1.90;;;;;;;10.24;81.65;98955.38;5097994;28;20034;-64
2022/11/08 09:56:49;;;;;;;4.22;1.77;;;;;;;10.42;81.32;98977.19;5099820;28;20036;-64
2022/11/08 09:59:32;;;;;;;5.65;2.50;;;;;;;10.55;80.43;98977.78;5097079;28;20041;-63
2022/11/08 10:01:57;;;;;;;7.30;2.75;;;;;;;10.60;80.95;98969.56;5088017;28;20071;-64
2022/11/08 10:04:26;;;;;;;5.50;1.98;;;;;;;10.68;80.39;98974.91;5090613;28;20091;-63
2022/11/08 10:06:57;;;;;;;6.90;2.83;;;;;;;10.47;80.07;98935.22;5080648;28;20506;-63
2022/11/08 10:09:31;;;;;;;5.20;2.05;;;;;;;10.75;81.44;98969.97;5084071;28;20064;-63
2022/11/08 10:12:20;;;;;;;6.55;2.80;;;;;;;10.79;81.06;98973.97;5081923;28;20501;-63
2022/11/08 10:15:04;;;;;;;5.38;2.42;;;;;;;10.78;79.85;98977.50;5080130;28;20666;-63
2022/11/08 10:17:49;;;;;;;6.13;1.85;;;;;;;10.86;79.46;98959.47;5074159;28;20030;-64
2022/11/08 10:20:25;;;;;;;4.82;2.13;;;;;;;10.88;79.49;98961.88;5081128;28;20725;-64
2022/11/08 10:22:58;;;;;;;4.85;1.95;;;;;;;10.87;78.19;98966.28;5081980;28;20059;-63
2022/11/08 10:25:45;;;;;;;4.85;1.95;;;;;;;10.93;78.91;98964.91;5082594;28;20748;-64
2022/11/08 10:28:17;;;;;;;4.53;1.75;;;;;;;10.85;77.72;98957.78;5098294;28;20028;-63
2022/11/08 10:30:47;;;;;;;5.57;1.83;;;;;;;10.91;77.51;98964.22;5079797;28;20469;-63
2022/11/08 10:33:16;;;;;;;4.47;2.00;;;;;;;10.93;77.05;98964.91;5088487;28;20035;-63
2022/11/08 10:36:01;;;;;;;5.32;2.33;;;;;;;10.98;77.59;98959.31;5081838;28;20036;-64
2022/11/08 10:38:33;;;;;;;5.63;2.15;;;;;;;10.96;77.41;98960.25;5081177;28;20116;-64
2022/11/08 10:41:24;;;;;;;4.68;1.70;;;;;;;10.94;76.32;98961.34;5099194;28;20028;-61
2022/11/08 10:43:56;;;;;;;4.40;1.50;;;;;;;10.89;77.43;98953.13;5081881;28;20042;-62
2022/11/08 10:46:28;;;;;;;4.40;1.70;;;;;;;10.95;79.71;98960.38;5065299;28;20019;-63
2022/11/08 10:48:56;;;;;;;4.20;1.80;;;;;;;10.98;78.37;98946.28;5083910;28;20096;-64
2022/11/08 10:51:22;;;;;;;4.20;1.50;;;;;;;10.83;76.42;98923.31;5085596;27;20031;-64
2022/11/08 10:53:47;;;;;;;5.72;1.60;;;;;;;11.00;78.17;98929.56;5092615;28;20032;-64
2022/11/08 10:56:13;;;;;;;5.00;1.50;;;;;;;11.18;77.08;98939.28;5101425;27;20024;-64
2022/11/08 10:58:41;;;;;;;4.30;1.50;;;;;;;11.02;78.22;98903.41;5085400;28;20600;-64
2022/11/08 11:01:15;;;;;;;5.95;1.85;;;;;;;11.18;78.19;98929.69;5084234;28;20562;-64
2022/11/08 11:03:41;;;;;;;4.22;1.73;;;;;;;11.17;76.44;98938.47;5069012;28;20043;-63
2022/11/08 11:06:31;;;;;;;4.13;1.58;;;;;;;11.05;76.33;98931.75;5102596;27;20051;-62
2022/11/08 11:09:16;;;;;;;3.92;1.55;;;;;;;11.08;75.85;98916.69;5084090;27;20024;-63
2022/11/08 11:11:42;;;;;;;7.47;1.67;;;;;;;11.08;77.09;98921.06;5094697;28;20032;-63
2022/11/08 11:14:20;;;;;;;4.10;1.40;;;;;;;11.14;77.29;98917.91;5081200;28;20050;-63
2022/11/08 11:17:16;;;;;;;5.15;1.90;;;;;;;11.20;77.45;98906.13;5083902;28;20031;-64
2022/11/08 11:19:43;;;;;;;5.18;2.00;;;;;;;10.99;75.86;98872.47;5079841;28;20054;-64
2022/11/08 11:22:11;;;;;;;4.38;1.63;;;;;;;11.11;76.95;98902.56;5082761;28;20105;-64
2022/11/08 11:24:46;;;;;;;5.45;1.90;;;;;;;11.19;78.06;98905.31;5092235;28;20028;-63
2022/11/08 11:27:33;;;;;;;6.40;1.80;;;;;;;11.25;78.82;98898.72;5101514;27;20038;-64
2022/11/08 11:30:11;;;;;;;5.25;1.67;;;;;;;11.29;78.15;98893.06;5072132;28;20565;-62
2022/11/08 11:32:38;;;;;;;4.07;1.40;;;;;;;11.34;77.47;98890.03;5073327;28;20032;-63
2022/11/08 11:35:06;;;;;;;5.80;1.75;;;;;;;11.28;77.54;98886.22;5076007;28;20043;-63
2022/11/08 11:37:43;;;;;;;4.93;2.05;;;;;;;11.41;78.57;98875.50;5090355;27;20100;-63
2022/11/08 11:40:18;;;;;;;5.20;2.22;;;;;;;11.51;78.60;98883.25;5075496;28;20490;-64
2022/11/08 11:43:29;;;;;;;4.40;2.10;;;;;;;11.53;78.22;98878.72;5069275;28;20028;-63
2022/11/08 11:46:01;;;;;;;4.50;1.65;;;;;;;11.55;77.39;98871.56;5081687;28;20139;-63
2022/11/08 11:48:29;;;;;;;4.43;1.70;;;;;;;11.53;77.35;98881.31;5100555;27;21382;-63
2022/11/08 11:50:55;;;;;;;4.18;1.50;;;;;;;11.50;79.23;98869.41;5064976;28;20027;-63
2022/11/08 11:53:31;;;;;;;5.38;1.70;;;;;;;11.47;77.25;98869.69;5097287;27;20058;-62
2022/11/08 11:56:20;;;;;;;4.97;1.60;;;;;;;11.45;77.86;98863.81;5083790;28;20059;-63
2022/11/08 11:58:57;;;;;;;4.30;1.90;;;;;;;11.47;77.41;98858.47;5091059;27;20695;-63
2022/11/08 12:01:44;;;;;;;4.30;1.92;;;;;;;11.52;76.79;98864.88;5082117;28;20050;-63
2022/11/08 12:04:37;;;;;;;5.72;1.70;;;;;;;11.53;78.15;98852.69;5085378;28;20039;-62
2022/11/08 12:07:23;;;;;;;4.10;1.85;;;;;;;11.39;78.63;98827.13;5084317;28;20052;-63
2022/11/08 12:10:06;;;;;;;4.53;1.63;;;;;;;11.61;77.73;98849.34;5085526;28;20044;-62
2022/11/08 12:12:48;;;;;;;6.22;1.55;;;;;;;11.60;77.11;98851.13;5078151;28;20046;-63